Time;durP1;ratioP1;P1;durP2;ratioP2;P2;SDS_P1;SDS_P2;PMS_P1;PMS_P2;Temp;Humidity;BMP_temperature;BMP_pressure;BME280_temperature;BME280_humidity;BME280_pressure;Samples;Min_cycle;Max_cycle;Signal;HPM_P1;HPM_P2
2022/10/21 00:01:16;;;;;;;1.63;1.20;;;23.30;58.10;;;;;;4977809;28;20034;-67
2022/10/21 00:03:42;;;;;;;2.33;1.10;;;23.30;58.10;;;;;;4973648;28;20427;-65
2022/10/21 00:06:09;;;;;;;2.58;1.10;;;23.30;58.10;;;;;;4993177;28;20509;-65
2022/10/21 00:08:35;;;;;;;1.90;1.20;;;23.20;58.10;;;;;;4982275;28;20052;-64
2022/10/21 00:11:02;;;;;;;2.40;1.25;;;23.20;58.10;;;;;;4980741;28;20026;-65
2022/10/21 00:13:30;;;;;;;1.52;1.10;;;23.20;58.10;;;;;;4992993;28;20058;-65
2022/10/21 00:16:11;;;;;;;1.40;1.00;;;23.20;58.10;;;;;;4998093;28;20442;-65
2022/10/21 00:18:38;;;;;;;1.48;1.10;;;23.20;58.10;;;;;;4996273;28;20030;-66
2022/10/21 00:21:16;;;;;;;1.83;1.10;;;23.20;58.10;;;;;;4998069;28;20121;-65
2022/10/21 00:23:42;;;;;;;1.90;1.10;;;23.20;58.10;;;;;;4997084;28;20076;-65
2022/10/21 00:26:08;;;;;;;1.73;1.13;;;23.20;58.20;;;;;;4995111;28;20417;-66
2022/10/21 00:28:34;;;;;;;1.83;1.10;;;23.20;58.20;;;;;;4993477;28;20030;-65
2022/10/21 00:31:00;;;;;;;1.80;1.15;;;23.20;58.20;;;;;;4999370;28;20334;-66
2022/10/21 00:33:27;;;;;;;1.65;1.00;;;23.10;58.20;;;;;;4980310;28;20049;-65
2022/10/21 00:35:58;;;;;;;1.88;1.05;;;23.10;58.20;;;;;;4997167;28;20461;-66
2022/10/21 00:38:24;;;;;;;1.50;1.08;;;23.10;58.20;;;;;;4991564;28;20103;-66
2022/10/21 00:40:50;;;;;;;1.35;1.00;;;23.10;58.20;;;;;;4994822;28;20080;-65
2022/10/21 00:43:16;;;;;;;1.75;1.20;;;23.10;58.20;;;;;;4991575;28;20133;-66
2022/10/21 00:45:43;;;;;;;1.30;1.00;;;23.10;58.20;;;;;;4994901;28;20177;-66
2022/10/21 00:48:18;;;;;;;2.22;1.48;;;23.10;58.20;;;;;;4983230;28;20030;-65
2022/10/21 00:50:56;;;;;;;1.67;1.10;;;23.10;58.20;;;;;;4995054;28;20027;-65
2022/10/21 00:53:23;;;;;;;1.37;1.00;;;23.10;58.20;;;;;;4997157;28;20029;-66
2022/10/21 00:55:54;;;;;;;1.63;1.15;;;23.10;58.30;;;;;;4986469;28;20038;-66
2022/10/21 00:58:23;;;;;;;2.00;1.20;;;23.10;58.30;;;;;;4997020;28;20118;-65
2022/10/21 01:00:49;;;;;;;;;;;23.10;58.30;;;;;;4996148;28;20122;-65
2022/10/21 01:03:15;;;;;;;1.55;1.05;;;23.00;58.30;;;;;;4994151;28;19976;-65
2022/10/21 01:05:42;;;;;;;1.55;1.10;;;23.10;58.30;;;;;;4986782;28;20408;-67
2022/10/21 01:08:08;;;;;;;1.65;1.10;;;23.00;58.30;;;;;;4981514;28;20038;-65
2022/10/21 01:10:33;;;;;;;1.58;1.10;;;23.00;58.30;;;;;;5003514;28;20026;-66
2022/10/21 01:13:18;;;;;;;1.70;1.00;;;23.00;58.30;;;;;;4991435;28;20038;-66
2022/10/21 01:16:05;;;;;;;1.70;1.13;;;23.00;58.80;;;;;;4993280;28;20057;-65
2022/10/21 01:18:37;;;;;;;1.52;1.00;;;23.00;58.30;;;;;;4996760;28;20113;-66
2022/10/21 01:21:28;;;;;;;1.77;1.10;;;23.00;58.30;;;;;;4989616;28;20444;-65
2022/10/21 01:23:54;;;;;;;1.48;1.05;;;23.00;58.30;;;;;;4995837;28;20033;-65
2022/10/21 01:26:56;;;;;;;1.55;1.20;;;23.00;58.40;;;;;;5000356;28;20030;-65
2022/10/21 01:30:13;;;;;;;1.90;1.20;;;23.00;58.40;;;;;;5001675;28;20033;-65
2022/10/21 01:33:00;;;;;;;1.58;1.00;;;22.90;58.30;;;;;;4967077;28;20137;-65
2022/10/21 01:35:40;;;;;;;1.27;1.08;;;22.90;58.40;;;;;;4998428;28;20157;-65
2022/10/21 01:38:40;;;;;;;2.15;1.15;;;22.90;58.40;;;;;;4992819;28;20486;-65
2022/10/21 01:41:06;;;;;;;1.85;1.00;;;22.90;58.40;;;;;;4972111;28;20030;-65
2022/10/21 01:43:55;;;;;;;1.63;1.05;;;22.90;58.40;;;;;;4992418;28;20121;-66
2022/10/21 01:46:32;;;;;;;1.85;1.27;;;22.90;58.40;;;;;;5006369;28;20436;-66
2022/10/21 01:49:12;;;;;;;1.60;1.30;;;22.90;58.40;;;;;;4999059;28;20038;-65
2022/10/21 01:51:39;;;;;;;1.45;1.00;;;22.90;58.40;;;;;;4982516;28;20518;-66
2022/10/21 01:54:20;;;;;;;1.40;1.00;;;22.90;58.40;;;;;;4993223;28;20438;-65
2022/10/21 01:56:47;;;;;;;1.50;1.00;;;22.90;58.50;;;;;;4982025;28;20038;-66
2022/10/21 01:59:14;;;;;;;1.90;1.10;;;22.90;58.40;;;;;;4991569;28;20034;-66
2022/10/21 02:01:43;;;;;;;1.80;1.15;;;22.90;58.50;;;;;;4993142;28;20057;-66
2022/10/21 02:04:11;;;;;;;1.60;1.10;;;22.90;58.50;;;;;;5006929;28;20038;-66
2022/10/21 02:06:36;;;;;;;1.67;1.08;;;22.90;58.50;;;;;;4990639;28;20118;-66
2022/10/21 02:09:02;;;;;;;1.35;1.00;;;22.80;58.50;;;;;;4992451;28;20510;-66
2022/10/21 02:11:29;;;;;;;1.52;1.10;;;22.80;58.50;;;;;;4992310;28;20045;-66
2022/10/21 02:14:02;;;;;;;1.77;1.20;;;22.80;58.50;;;;;;4992117;28;20027;-67
2022/10/21 02:16:32;;;;;;;1.85;1.10;;;22.80;58.50;;;;;;4995997;28;20482;-66
2022/10/21 02:18:59;;;;;;;1.48;1.20;;;22.80;58.50;;;;;;4990601;28;20042;-66
2022/10/21 02:21:30;;;;;;;1.70;1.10;;;22.80;58.50;;;;;;4991287;28;20081;-65
2022/10/21 02:24:07;;;;;;;1.10;1.00;;;22.80;58.50;;;;;;5001892;28;20014;-65
2022/10/21 02:26:33;;;;;;;1.40;0.93;;;22.80;58.50;;;;;;4997845;28;20066;-66
2022/10/21 02:28:59;;;;;;;1.95;1.00;;;22.80;58.50;;;;;;4990758;28;20434;-65
2022/10/21 02:31:50;;;;;;;1.38;1.05;;;22.80;58.50;;;;;;4982793;28;20466;-65
2022/10/21 02:34:50;;;;;;;1.38;1.00;;;22.80;58.60;;;;;;4985676;28;20034;-66
2022/10/21 02:38:02;;;;;;;1.50;1.10;;;22.80;58.60;;;;;;4992855;28;20037;-66
2022/10/21 02:40:38;;;;;;;1.80;1.10;;;22.80;58.60;;;;;;4912114;28;20043;-65
2022/10/21 02:43:12;;;;;;;1.40;0.93;;;22.80;58.60;;;;;;4984427;28;20014;-66
2022/10/21 02:45:39;;;;;;;1.60;1.08;;;22.70;58.60;;;;;;4983695;28;20038;-65
2022/10/21 02:48:05;;;;;;;1.98;1.17;;;22.70;58.60;;;;;;4993085;28;20486;-64
2022/10/21 02:50:31;;;;;;;1.30;1.00;;;22.70;58.60;;;;;;5001954;28;20472;-65
2022/10/21 02:52:56;;;;;;;1.55;1.00;;;22.70;58.60;;;;;;4983128;28;20026;-65
2022/10/21 02:55:22;;;;;;;1.27;1.00;;;22.70;58.60;;;;;;4998761;28;20485;-65
2022/10/21 02:57:48;;;;;;;1.85;1.02;;;22.70;58.60;;;;;;4994971;28;20030;-65
2022/10/21 03:00:14;;;;;;;1.38;1.00;;;22.70;58.60;;;;;;4996415;28;20026;-65
2022/10/21 03:02:41;;;;;;;1.10;0.90;;;22.70;58.60;;;;;;4984872;28;20601;-65
2022/10/21 03:05:08;;;;;;;1.30;1.02;;;22.70;58.60;;;;;;4994327;28;20068;-66
2022/10/21 03:07:34;;;;;;;1.52;1.00;;;22.70;58.70;;;;;;4987173;28;20528;-66
2022/10/21 03:09:59;;;;;;;1.52;0.98;;;22.70;58.70;;;;;;4996287;28;20237;-66
2022/10/21 03:12:25;;;;;;;1.40;1.00;;;22.70;58.70;;;;;;4983528;28;20125;-65
2022/10/21 03:14:50;;;;;;;1.52;1.20;;;22.70;58.70;;;;;;4995261;28;20046;-66
2022/10/21 03:17:16;;;;;;;1.50;1.00;;;22.70;58.70;;;;;;4980722;28;20031;-67
2022/10/21 03:19:41;;;;;;;1.65;1.10;;;22.60;58.70;;;;;;4998488;28;20030;-66
2022/10/21 03:22:07;;;;;;;1.90;1.10;;;22.60;58.70;;;;;;4997192;28;20414;-66
2022/10/21 03:24:33;;;;;;;1.50;1.10;;;22.60;58.70;;;;;;4992123;28;20097;-66
2022/10/21 03:26:58;;;;;;;1.42;1.10;;;22.60;58.70;;;;;;4993624;28;20105;-65
2022/10/21 03:29:24;;;;;;;1.38;1.02;;;22.60;58.70;;;;;;4992950;28;20045;-65
2022/10/21 03:31:49;;;;;;;1.40;1.00;;;22.60;58.80;;;;;;4987775;28;20133;-65
2022/10/21 03:34:15;;;;;;;1.55;1.10;;;22.60;58.80;;;;;;4994352;28;20523;-67
2022/10/21 03:36:41;;;;;;;1.17;1.00;;;22.60;58.80;;;;;;4998959;28;20041;-66
2022/10/21 03:39:06;;;;;;;1.52;1.00;;;22.60;58.80;;;;;;4998862;28;20112;-66
2022/10/21 03:41:32;;;;;;;1.70;1.10;;;22.60;58.80;;;;;;4990658;28;20545;-66
2022/10/21 03:43:58;;;;;;;1.50;1.10;;;22.60;58.80;;;;;;4987901;28;20030;-66
2022/10/21 03:46:23;;;;;;;1.35;1.10;;;22.60;58.80;;;;;;4994336;28;20022;-65
2022/10/21 03:48:49;;;;;;;1.30;1.00;;;22.60;58.80;;;;;;4991368;28;20057;-67
2022/10/21 03:51:14;;;;;;;1.30;1.10;;;22.60;59.00;;;;;;4994220;28;20109;-66
2022/10/21 03:53:40;;;;;;;1.65;1.17;;;22.60;58.90;;;;;;4991143;28;20038;-66
2022/10/21 03:56:06;;;;;;;1.45;1.00;;;22.60;58.90;;;;;;4993120;28;20069;-67
2022/10/21 03:58:34;;;;;;;1.35;1.00;;;22.60;58.90;;;;;;4990748;28;20031;-66
2022/10/21 04:01:00;;;;;;;1.58;1.00;;;22.50;58.90;;;;;;4991760;28;20386;-65
2022/10/21 04:03:26;;;;;;;1.42;0.98;;;22.50;58.90;;;;;;4994321;28;20025;-65
2022/10/21 04:05:52;;;;;;;1.27;0.95;;;22.50;58.90;;;;;;4995698;28;20441;-65
2022/10/21 04:08:17;;;;;;;1.83;1.00;;;22.60;59.00;;;;;;4998547;28;20101;-66
2022/10/21 04:10:44;;;;;;;1.20;1.00;;;22.60;59.00;;;;;;4981638;28;20121;-65
2022/10/21 04:13:10;;;;;;;1.60;1.17;;;22.60;59.00;;;;;;4992010;28;20458;-66
2022/10/21 04:15:35;;;;;;;1.50;1.00;;;22.50;59.00;;;;;;4995360;28;20064;-66
2022/10/21 04:18:01;;;;;;;1.42;1.00;;;22.60;59.10;;;;;;4976860;28;20031;-65
2022/10/21 04:20:27;;;;;;;1.80;1.30;;;22.50;59.10;;;;;;4996382;28;20073;-66
2022/10/21 04:22:53;;;;;;;1.77;1.17;;;22.50;59.10;;;;;;4998445;28;20451;-65
2022/10/21 04:25:18;;;;;;;1.30;1.10;;;22.50;59.10;;;;;;5001255;28;20061;-65
2022/10/21 04:27:44;;;;;;;2.03;1.15;;;22.50;59.20;;;;;;5003190;28;20363;-66
2022/10/21 04:30:10;;;;;;;1.60;1.05;;;22.50;59.20;;;;;;4985104;28;20034;-65
2022/10/21 04:32:35;;;;;;;1.20;0.98;;;22.50;59.20;;;;;;4990361;28;20078;-65
2022/10/21 04:35:01;;;;;;;1.55;1.10;;;22.50;59.20;;;;;;4985081;28;20029;-65
2022/10/21 04:37:26;;;;;;;1.50;1.00;;;22.50;59.30;;;;;;4979161;28;20045;-66
2022/10/21 04:39:52;;;;;;;1.35;1.00;;;22.50;59.30;;;;;;5000258;28;20112;-65
2022/10/21 04:42:18;;;;;;;1.42;1.00;;;22.50;59.30;;;;;;4984256;28;20031;-65
2022/10/21 04:44:43;;;;;;;1.48;1.00;;;22.50;59.30;;;;;;4994366;28;20038;-65
2022/10/21 04:47:09;;;;;;;1.80;1.10;;;22.50;59.30;;;;;;4994899;28;20033;-65
2022/10/21 04:49:34;;;;;;;1.77;1.10;;;22.50;59.30;;;;;;4995522;28;20042;-66
2022/10/21 04:52:00;;;;;;;1.58;1.05;;;22.50;59.80;;;;;;4992526;28;20027;-65
2022/10/21 04:54:26;;;;;;;1.52;1.10;;;22.50;59.30;;;;;;4981185;28;20018;-65
2022/10/21 04:56:51;;;;;;;1.63;1.00;;;22.50;59.30;;;;;;4982818;28;20080;-65
2022/10/21 04:59:17;;;;;;;1.70;1.10;;;22.50;59.30;;;;;;4988874;28;20262;-65
2022/10/21 05:01:42;;;;;;;1.23;0.93;;;22.40;59.30;;;;;;4982815;28;20344;-65
2022/10/21 05:04:08;;;;;;;1.85;1.20;;;22.40;59.30;;;;;;4986535;28;20034;-65
2022/10/21 05:06:34;;;;;;;1.50;1.10;;;22.40;59.40;;;;;;4987108;28;20018;-65
2022/10/21 05:08:59;;;;;;;1.35;1.10;;;22.40;59.40;;;;;;4989626;28;20504;-65
2022/10/21 05:11:25;;;;;;;2.03;1.30;;;22.50;59.50;;;;;;4998383;28;20030;-66
2022/10/21 05:13:50;;;;;;;1.30;1.00;;;22.40;59.40;;;;;;5001906;28;20052;-64
2022/10/21 05:16:16;;;;;;;1.60;1.20;;;22.40;60.20;;;;;;4999571;28;20065;-63
2022/10/21 05:18:42;;;;;;;1.75;1.10;;;22.60;61.00;;;;;;4987084;28;20516;-64
2022/10/21 05:21:07;;;;;;;1.90;0.90;;;22.80;60.40;;;;;;4991419;28;20030;-64
2022/10/21 05:23:33;;;;;;;1.63;0.98;;;22.90;60.70;;;;;;4999403;28;20026;-64
2022/10/21 05:25:58;;;;;;;1.60;0.90;;;22.90;60.10;;;;;;5000524;28;20752;-63
2022/10/21 05:28:24;;;;;;;1.38;0.90;;;22.90;59.80;;;;;;4992796;28;20391;-64
2022/10/21 05:30:51;;;;;;;1.45;1.02;;;22.90;59.70;;;;;;4986023;28;20035;-63
2022/10/21 05:33:17;;;;;;;1.85;1.15;;;22.90;60.80;;;;;;4988725;28;20424;-63
2022/10/21 05:35:43;;;;;;;2.40;1.10;;;23.10;60.80;;;;;;4994109;28;20022;-63
2022/10/21 05:38:08;;;;;;;1.25;0.90;;;23.30;60.50;;;;;;4993627;28;20482;-64
2022/10/21 05:40:34;;;;;;;1.27;0.80;;;23.50;60.60;;;;;;4989229;28;20793;-64
2022/10/21 05:43:00;;;;;;;0.73;0.70;;;23.70;59.70;;;;;;4968170;28;20030;-64
2022/10/21 05:45:26;;;;;;;1.63;0.90;;;23.70;59.30;;;;;;4985901;28;20509;-64
2022/10/21 05:47:52;;;;;;;1.45;0.85;;;23.80;59.70;;;;;;4989703;28;20121;-64
2022/10/21 05:50:17;;;;;;;1.73;0.95;;;23.90;59.60;;;;;;4999139;28;20401;-63
2022/10/21 05:52:43;;;;;;;1.38;0.80;;;24.20;59.30;;;;;;4997542;28;20031;-64
2022/10/21 05:55:09;;;;;;;1.08;0.70;;;24.40;59.00;;;;;;4998512;28;20030;-63
2022/10/21 05:57:35;;;;;;;0.88;0.68;;;24.40;58.70;;;;;;4996677;28;20028;-64
2022/10/21 06:00:02;;;;;;;0.90;0.70;;;24.30;58.70;;;;;;5001273;28;20488;-64
2022/10/21 06:02:27;;;;;;;0.95;0.80;;;24.30;58.70;;;;;;5007398;28;20033;-63
2022/10/21 06:04:53;;;;;;;1.17;0.90;;;24.20;59.20;;;;;;4981006;28;20531;-64
2022/10/21 06:07:18;;;;;;;1.20;0.90;;;24.40;59.30;;;;;;4988631;28;20105;-67
2022/10/21 06:09:44;;;;;;;1.15;0.90;;;24.70;58.90;;;;;;4978697;28;20076;-65
2022/10/21 06:12:09;;;;;;;1.17;0.80;;;24.80;58.70;;;;;;4997851;28;20026;-63
2022/10/21 06:14:35;;;;;;;1.73;0.70;;;24.90;58.60;;;;;;4996053;28;20071;-65
2022/10/21 06:17:02;;;;;;;0.80;0.60;;;24.80;58.60;;;;;;4992918;28;20030;-66
2022/10/21 06:19:28;;;;;;;0.93;0.80;;;24.80;58.60;;;;;;4990613;28;20066;-64
2022/10/21 06:21:53;;;;;;;0.70;0.52;;;24.80;59.10;;;;;;4989312;28;20473;-65
2022/10/21 06:24:19;;;;;;;0.65;0.60;;;25.10;58.80;;;;;;4989532;28;20077;-66
2022/10/21 06:26:45;;;;;;;0.75;0.60;;;25.10;58.60;;;;;;4990439;28;20041;-64
2022/10/21 06:29:11;;;;;;;0.90;0.63;;;25.10;58.80;;;;;;4989419;28;20034;-64
2022/10/21 06:31:36;;;;;;;1.38;0.70;;;25.10;59.10;;;;;;4990944;28;20031;-65
2022/10/21 06:34:02;;;;;;;0.80;0.70;;;25.10;59.40;;;;;;4984241;28;20077;-65
2022/10/21 06:36:29;;;;;;;2.53;0.80;;;25.10;59.70;;;;;;4987214;28;20031;-64
2022/10/21 06:38:54;;;;;;;2.15;0.70;;;25.10;59.80;;;;;;4987523;28;20026;-64
2022/10/21 06:41:20;;;;;;;1.30;0.70;;;25.00;59.30;;;;;;4997731;28;20478;-63
2022/10/21 06:43:46;;;;;;;1.27;0.85;;;25.10;59.30;;;;;;4996974;28;20022;-65
2022/10/21 06:46:14;;;;;;;1.10;0.80;;;25.10;59.30;;;;;;4995181;28;20022;-64
2022/10/21 06:48:40;;;;;;;0.90;0.73;;;25.10;59.70;;;;;;5001372;28;20108;-66
2022/10/21 06:51:09;;;;;;;1.40;0.70;;;25.10;59.40;;;;;;4998175;28;20462;-65
2022/10/21 06:53:35;;;;;;;0.93;0.70;;;25.10;59.80;;;;;;4992414;28;20093;-64
2022/10/21 06:56:06;;;;;;;0.80;0.70;;;25.10;59.20;;;;;;4993386;28;20065;-64
2022/10/21 06:58:33;;;;;;;1.75;0.70;;;25.10;59.20;;;;;;4991417;28;20026;-63
2022/10/21 07:01:04;;;;;;;1.30;0.70;;;25.10;59.30;;;;;;4994619;28;20109;-64
2022/10/21 07:03:30;;;;;;;0.70;0.60;;;25.10;59.20;;;;;;4997260;28;20117;-64
2022/10/21 07:05:59;;;;;;;0.70;0.63;;;25.20;59.20;;;;;;4997125;28;20564;-64
2022/10/21 07:08:26;;;;;;;1.00;0.70;;;25.20;59.30;;;;;;4979355;28;20530;-63
2022/10/21 07:10:51;;;;;;;0.65;0.60;;;25.20;59.10;;;;;;4993998;28;20074;-63
2022/10/21 07:13:17;;;;;;;1.13;0.70;;;25.20;59.10;;;;;;4995476;28;20084;-63
2022/10/21 07:15:43;;;;;;;0.82;0.68;;;25.20;59.00;;;;;;4996487;28;20048;-63
2022/10/21 07:18:08;;;;;;;0.82;0.60;;;25.20;59.10;;;;;;4999119;28;20103;-62
2022/10/21 07:20:34;;;;;;;1.27;0.70;;;25.30;59.10;;;;;;4997595;28;20052;-65
2022/10/21 07:22:59;;;;;;;2.35;1.20;;;25.20;59.00;;;;;;4990432;28;20022;-66
2022/10/21 07:25:25;;;;;;;3.10;1.63;;;25.30;58.00;;;;;;5003918;28;20068;-64
2022/10/21 07:27:51;;;;;;;3.03;1.73;;;25.30;57.50;;;;;;4992211;28;20522;-64
2022/10/21 07:30:16;;;;;;;2.85;1.52;;;25.30;56.80;;;;;;4989620;28;20030;-65
2022/10/21 07:32:42;;;;;;;3.78;2.20;;;25.30;56.30;;;;;;4979235;28;20022;-64
2022/10/21 07:35:08;;;;;;;2.97;1.80;;;25.30;55.60;;;;;;4996942;28;20030;-64
2022/10/21 07:37:34;;;;;;;3.20;2.20;;;25.30;55.20;;;;;;4999894;28;20502;-64
2022/10/21 07:39:59;;;;;;;3.65;2.63;;;25.30;54.90;;;;;;4978017;28;20026;-64
2022/10/21 07:42:27;;;;;;;4.57;2.90;;;25.30;54.60;;;;;;4990209;28;20032;-66
2022/10/21 07:44:58;;;;;;;3.70;2.63;;;25.30;54.40;;;;;;4997948;28;20076;-66
2022/10/21 07:47:24;;;;;;;3.67;2.65;;;25.30;54.00;;;;;;5002437;28;20041;-65
2022/10/21 07:49:50;;;;;;;3.83;2.78;;;25.30;53.50;;;;;;5003276;28;20053;-66
2022/10/21 07:52:16;;;;;;;3.45;2.55;;;25.30;53.60;;;;;;5000818;28;20034;-65
2022/10/21 07:54:43;;;;;;;3.72;2.97;;;25.30;53.30;;;;;;4994369;28;20034;-65
2022/10/21 07:57:09;;;;;;;2.38;1.50;;;25.20;53.50;;;;;;4993169;28;20142;-65
2022/10/21 07:59:35;;;;;;;2.25;1.60;;;25.20;53.10;;;;;;4992488;28;20026;-66
2022/10/21 08:02:01;;;;;;;1.80;1.20;;;25.20;52.90;;;;;;4987159;28;20056;-64
2022/10/21 08:04:30;;;;;;;2.35;1.70;;;25.10;53.10;;;;;;4985628;28;20029;-65
2022/10/21 08:06:56;;;;;;;2.60;1.60;;;25.10;52.60;;;;;;4973929;28;20022;-67
2022/10/21 08:09:22;;;;;;;3.00;1.90;;;25.10;52.70;;;;;;4991478;28;20489;-64
2022/10/21 08:11:48;;;;;;;3.15;1.80;;;25.10;52.70;;;;;;4992330;28;20042;-64
2022/10/21 08:14:14;;;;;;;3.22;1.83;;;25.10;52.60;;;;;;4987470;28;20046;-64
2022/10/21 08:16:41;;;;;;;2.55;1.75;;;25.00;52.60;;;;;;4988032;28;20800;-66
2022/10/21 08:19:07;;;;;;;2.90;1.83;;;25.00;52.70;;;;;;4993469;28;20027;-64
2022/10/21 08:21:35;;;;;;;2.58;1.70;;;25.00;52.80;;;;;;4998787;28;20623;-66
2022/10/21 08:24:02;;;;;;;3.03;2.00;;;25.00;52.70;;;;;;4997865;28;20156;-65
2022/10/21 08:26:28;;;;;;;2.42;1.85;;;25.00;52.80;;;;;;4993005;28;20073;-64
2022/10/21 08:28:54;;;;;;;2.92;1.70;;;25.00;52.90;;;;;;4993997;28;20034;-66
2022/10/21 08:31:21;;;;;;;2.33;1.67;;;25.00;52.80;;;;;;4992154;28;20039;-65
2022/10/21 08:33:47;;;;;;;2.80;2.00;;;24.90;52.70;;;;;;4997528;28;20036;-65
2022/10/21 08:36:15;;;;;;;3.13;1.90;;;24.90;52.80;;;;;;4989450;28;20367;-66
2022/10/21 08:38:41;;;;;;;2.58;1.90;;;24.90;52.90;;;;;;4985703;28;20479;-65
2022/10/21 08:41:30;;;;;;;2.75;2.03;;;24.90;52.80;;;;;;4985129;28;20026;-64
2022/10/21 08:44:06;;;;;;;2.75;2.05;;;24.90;53.30;;;;;;4989338;28;20120;-65
2022/10/21 08:46:41;;;;;;;4.22;2.00;;;24.80;53.20;;;;;;4975763;28;20022;-64
2022/10/21 08:49:23;;;;;;;3.08;2.03;;;24.80;53.30;;;;;;4992197;28;20041;-66
2022/10/21 08:51:56;;;;;;;3.00;2.15;;;24.80;53.10;;;;;;4992887;28;20601;-64
2022/10/21 08:54:29;;;;;;;3.03;2.00;;;24.80;52.90;;;;;;4991277;28;20031;-67
2022/10/21 08:56:59;;;;;;;2.88;2.00;;;24.80;53.20;;;;;;4987300;28;20493;-65
2022/10/21 08:59:25;;;;;;;2.35;1.90;;;24.80;53.10;;;;;;4992086;28;20552;-65
2022/10/21 09:01:59;;;;;;;2.85;1.70;;;24.80;53.30;;;;;;4992682;28;20347;-66
2022/10/21 09:04:33;;;;;;;3.00;1.90;;;24.80;53.40;;;;;;4989134;28;20122;-66
2022/10/21 09:07:05;;;;;;;3.10;1.92;;;24.80;53.40;;;;;;4991582;28;20062;-65
2022/10/21 09:09:42;;;;;;;3.17;2.10;;;24.80;53.40;;;;;;5006537;28;20140;-66
2022/10/21 09:12:28;;;;;;;3.70;2.38;;;24.80;53.20;;;;;;4993177;28;20127;-65
2022/10/21 09:15:19;;;;;;;3.13;2.47;;;24.80;53.00;;;;;;4978449;28;20058;-70
2022/10/21 09:18:01;;;;;;;3.22;2.40;;;24.70;52.80;;;;;;4996872;28;20043;-64
2022/10/21 09:20:57;;;;;;;3.97;2.53;;;24.70;53.30;;;;;;4998563;28;20477;-65
2022/10/21 09:23:47;;;;;;;6.50;2.28;;;24.70;53.20;;;;;;4996612;28;20459;-65
2022/10/21 09:26:34;;;;;;;4.22;2.20;;;24.70;53.20;;;;;;4998131;28;20026;-65
2022/10/21 09:29:34;;;;;;;4.38;2.40;;;24.70;53.40;;;;;;5003219;28;20029;-65
2022/10/21 09:32:15;;;;;;;3.17;2.53;;;24.60;53.00;;;;;;4999459;28;20116;-65
2022/10/21 09:34:44;;;;;;;3.08;2.28;;;24.60;53.00;;;;;;4993507;28;20030;-65
2022/10/21 09:37:40;;;;;;;2.90;2.20;;;24.60;53.10;;;;;;4997613;28;20063;-66
2022/10/21 09:40:23;;;;;;;3.63;2.33;;;24.60;53.30;;;;;;4991850;28;20476;-67
2022/10/21 09:42:51;;;;;;;3.75;2.17;;;24.50;53.20;;;;;;4966224;28;20041;-67
2022/10/21 09:45:42;;;;;;;3.17;2.20;;;24.50;53.40;;;;;;4993301;28;20485;-67
2022/10/21 09:48:17;;;;;;;4.90;2.50;;;24.50;53.60;;;;;;4977373;28;20502;-67
2022/10/21 09:51:04;;;;;;;3.25;1.90;;;24.40;53.50;;;;;;4983660;28;20420;-67
2022/10/21 09:53:30;;;;;;;4.65;1.90;;;24.40;53.70;;;;;;4988718;28;20508;-68
2022/10/21 09:56:02;;;;;;;2.67;1.92;;;24.40;53.90;;;;;;4991531;28;20103;-66
2022/10/21 09:58:37;;;;;;;3.22;1.80;;;24.40;54.10;;;;;;4998168;28;20042;-66
2022/10/21 10:01:04;;;;;;;3.17;1.65;;;24.40;54.30;;;;;;4979606;28;20034;-67
2022/10/21 10:03:34;;;;;;;1.85;1.40;;;24.40;54.40;;;;;;4991976;28;20024;-67
2022/10/21 10:06:00;;;;;;;2.45;1.50;;;24.40;54.50;;;;;;4998032;28;20054;-67
2022/10/21 10:08:31;;;;;;;3.08;1.77;;;24.40;54.50;;;;;;4998941;28;20501;-69
2022/10/21 10:11:22;;;;;;;2.20;1.60;;;24.40;54.50;;;;;;4995538;28;20066;-68
2022/10/21 10:13:51;;;;;;;3.65;1.60;;;24.50;54.60;;;;;;4992471;28;20536;-68
2022/10/21 10:16:21;;;;;;;2.45;1.63;;;24.50;54.60;;;;;;4990832;28;20055;-67
2022/10/21 10:18:49;;;;;;;2.97;1.50;;;24.50;54.60;;;;;;5003343;28;20085;-66
2022/10/21 10:21:20;;;;;;;2.63;1.70;;;24.50;54.60;;;;;;4998471;28;20466;-66
2022/10/21 10:23:54;;;;;;;2.65;1.55;;;24.50;54.70;;;;;;4990449;28;20018;-68
2022/10/21 10:26:29;;;;;;;2.13;1.50;;;24.50;54.70;;;;;;4989654;28;20114;-66
2022/10/21 10:28:59;;;;;;;2.10;1.40;;;24.50;54.70;;;;;;4995828;28;20022;-66
2022/10/21 10:31:29;;;;;;;2.40;1.55;;;24.50;54.80;;;;;;4967457;28;20335;-66
2022/10/21 10:33:58;;;;;;;2.50;1.60;;;24.50;54.80;;;;;;4975540;28;20364;-67
2022/10/21 10:36:28;;;;;;;2.47;1.52;;;24.50;54.90;;;;;;4980736;28;20080;-69
2022/10/21 10:38:56;;;;;;;3.15;1.70;;;24.50;54.90;;;;;;4991676;28;20026;-65
2022/10/21 10:41:31;;;;;;;4.05;1.73;;;24.50;55.00;;;;;;4995012;28;20092;-66
2022/10/21 10:43:57;;;;;;;3.00;1.52;;;24.50;55.00;;;;;;4969973;28;20399;-67
2022/10/21 10:46:33;;;;;;;2.90;1.40;;;24.50;55.00;;;;;;4996557;28;20045;-68
2022/10/21 10:49:14;;;;;;;2.20;1.33;;;24.50;55.00;;;;;;4997277;28;20031;-66
2022/10/21 10:51:41;;;;;;;2.50;1.60;;;24.50;55.10;;;;;;4997516;28;20029;-67
2022/10/21 10:54:39;;;;;;;2.30;1.65;;;24.50;55.10;;;;;;4993105;28;20027;-67
2022/10/21 10:57:25;;;;;;;2.17;1.40;;;24.50;55.20;;;;;;4985583;28;20057;-67
2022/10/21 11:00:24;;;;;;;2.33;1.50;;;24.50;55.20;;;;;;4996244;28;20113;-66
2022/10/21 11:03:06;;;;;;;2.25;1.50;;;24.50;55.20;;;;;;4993728;28;20031;-66
2022/10/21 11:05:41;;;;;;;1.67;1.20;;;24.50;55.20;;;;;;4996761;28;20041;-67
2022/10/21 11:08:38;;;;;;;2.13;1.40;;;24.60;55.20;;;;;;4994973;28;20027;-68
2022/10/21 11:11:37;;;;;;;2.90;1.40;;;24.50;55.20;;;;;;4980383;28;20513;-67
2022/10/21 11:14:08;;;;;;;2.47;1.50;;;24.50;55.20;;;;;;4989305;28;20462;-67
2022/10/21 11:17:02;;;;;;;1.70;1.30;;;24.50;55.30;;;;;;4989381;28;20046;-67
2022/10/21 11:19:54;;;;;;;1.92;1.42;;;24.50;55.30;;;;;;4984332;28;20050;-67
2022/10/21 11:23:05;;;;;;;2.08;1.50;;;24.50;55.40;;;;;;4964412;28;20035;-68
2022/10/21 11:25:37;;;;;;;2.15;1.45;;;24.50;55.50;;;;;;4978166;28;20121;-67
2022/10/21 11:28:08;;;;;;;1.75;1.35;;;24.40;55.40;;;;;;4994216;28;20061;-68
2022/10/21 11:30:43;;;;;;;2.38;1.35;;;24.40;55.50;;;;;;4986163;28;20022;-68
2022/10/21 11:33:20;;;;;;;2.10;1.33;;;24.40;55.60;;;;;;5002660;28;20026;-68
2022/10/21 11:35:58;;;;;;;2.33;1.30;;;24.30;55.60;;;;;;4990517;28;20029;-67
2022/10/21 11:38:48;;;;;;;2.03;1.33;;;24.30;55.60;;;;;;4995888;28;20033;-67
2022/10/21 11:41:35;;;;;;;2.03;1.27;;;24.30;55.70;;;;;;5000005;28;20547;-68
2022/10/21 11:44:28;;;;;;;1.88;1.30;;;24.30;55.70;;;;;;4995438;28;20061;-67
2022/10/21 11:47:16;;;;;;;2.25;1.30;;;24.30;55.80;;;;;;4991778;28;20549;-67
2022/10/21 11:50:04;;;;;;;1.80;1.40;;;24.20;55.80;;;;;;4992718;28;20022;-67
2022/10/21 11:52:30;;;;;;;2.15;1.30;;;24.20;55.90;;;;;;4995180;28;20454;-67
2022/10/21 11:55:33;;;;;;;1.73;1.17;;;24.20;55.90;;;;;;4993698;28;20034;-68
2022/10/21 11:58:12;;;;;;;1.80;1.10;;;24.20;56.00;;;;;;4995879;28;20400;-67
2022/10/21 12:01:02;;;;;;;1.85;1.30;;;24.10;56.10;;;;;;5000723;28;20724;-68
2022/10/21 12:03:46;;;;;;;2.03;1.10;;;24.10;56.10;;;;;;4999100;28;20026;-68
2022/10/21 12:06:37;;;;;;;1.60;1.08;;;24.10;56.10;;;;;;4989124;28;20027;-67
2022/10/21 12:09:10;;;;;;;2.78;1.20;;;24.10;56.20;;;;;;4986602;28;20026;-67
2022/10/21 12:11:51;;;;;;;1.70;1.23;;;24.10;56.20;;;;;;5002284;28;20434;-67
2022/10/21 12:14:25;;;;;;;1.67;1.08;;;24.10;56.30;;;;;;4981758;28;20034;-67
2022/10/21 12:16:53;;;;;;;1.98;1.10;;;24.00;56.20;;;;;;4989139;28;20138;-68
2022/10/21 12:19:21;;;;;;;1.90;1.20;;;24.00;56.30;;;;;;4987427;28;20034;-68
2022/10/21 12:21:47;;;;;;;1.65;1.08;;;24.00;56.30;;;;;;4984191;28;20035;-68
2022/10/21 12:24:19;;;;;;;1.60;1.15;;;24.00;56.40;;;;;;4986635;28;20359;-67
2022/10/21 12:27:16;;;;;;;1.77;1.13;;;23.90;56.40;;;;;;4996997;28;20168;-67
2022/10/21 12:29:56;;;;;;;3.13;1.40;;;23.90;56.40;;;;;;4996099;28;20038;-67
2022/10/21 12:32:45;;;;;;;1.75;1.10;;;23.90;56.50;;;;;;4991257;28;20060;-67
2022/10/21 12:35:15;;;;;;;2.00;1.27;;;23.90;56.50;;;;;;4966956;28;20035;-67
2022/10/21 12:37:50;;;;;;;2.20;1.23;;;23.90;56.50;;;;;;4993447;28;20037;-68
2022/10/21 12:40:32;;;;;;;1.95;1.25;;;23.90;56.60;;;;;;5006585;28;20030;-67
2022/10/21 12:43:00;;;;;;;1.42;1.10;;;23.90;56.60;;;;;;4992104;28;20026;-68
2022/10/21 12:45:29;;;;;;;1.88;1.30;;;23.90;56.60;;;;;;4990815;28;20022;-67
2022/10/21 12:47:55;;;;;;;2.17;1.25;;;23.80;56.60;;;;;;4997313;28;20035;-67
2022/10/21 12:50:24;;;;;;;2.17;1.10;;;23.80;56.60;;;;;;4999773;28;20026;-67
2022/10/21 12:53:26;;;;;;;1.45;1.10;;;23.80;56.60;;;;;;4997447;28;20025;-67
2022/10/21 12:55:57;;;;;;;2.33;1.15;;;23.80;56.60;;;;;;4994876;28;20038;-68
2022/10/21 12:58:31;;;;;;;1.77;1.10;;;23.80;56.70;;;;;;4989503;28;20049;-68
2022/10/21 13:00:57;;;;;;;1.30;0.90;;;23.80;56.70;;;;;;4991617;28;20517;-67
2022/10/21 13:03:44;;;;;;;1.65;1.00;;;23.80;56.70;;;;;;4999216;28;20021;-67
2022/10/21 13:06:11;;;;;;;2.00;1.15;;;23.70;56.70;;;;;;4998747;28;20473;-67
2022/10/21 13:08:54;;;;;;;1.55;1.10;;;23.70;56.60;;;;;;4983300;28;20071;-67
2022/10/21 13:11:35;;;;;;;1.75;1.13;;;23.70;56.70;;;;;;4996521;28;20500;-67